sensor_id;sensor_type;location;lat;lon;timestamp;temperature;humidity
51825;DHT22;37879;52.986;6.282;2023-02-17T00:02:01;9.20;99.90
51825;DHT22;37879;52.986;6.282;2023-02-17T00:04:28;9.10;99.90
51825;DHT22;37879;52.986;6.282;2023-02-17T00:06:56;9.10;99.90
51825;DHT22;37879;52.986;6.282;2023-02-17T00:09:22;9.10;99.90
51825;DHT22;37879;52.986;6.282;2023-02-17T00:11:48;8.40;99.90
51825;DHT22;37879;52.986;6.282;2023-02-17T00:14:14;9.10;99.90
51825;DHT22;37879;52.986;6.282;2023-02-17T00:16:40;9.10;99.90
51825;DHT22;37879;52.986;6.282;2023-02-17T00:19:06;9.10;99.90
51825;DHT22;37879;52.986;6.282;2023-02-17T00:21:53;9.10;99.90
51825;DHT22;37879;52.986;6.282;2023-02-17T00:24:20;9.10;99.90
51825;DHT22;37879;52.986;6.282;2023-02-17T00:26:46;9.20;99.90
51825;DHT22;37879;52.986;6.282;2023-02-17T00:29:12;9.50;99.90
51825;DHT22;37879;52.986;6.282;2023-02-17T00:31:38;9.10;99.90
51825;DHT22;37879;52.986;6.282;2023-02-17T00:34:04;9.10;99.90
51825;DHT22;37879;52.986;6.282;2023-02-17T00:36:30;9.10;99.90
51825;DHT22;37879;52.986;6.282;2023-02-17T00:38:56;9.10;99.90
51825;DHT22;37879;52.986;6.282;2023-02-17T00:41:22;9.20;99.90
51825;DHT22;37879;52.986;6.282;2023-02-17T00:43:48;9.30;99.90
51825;DHT22;37879;52.986;6.282;2023-02-17T00:46:15;9.10;99.90
51825;DHT22;37879;52.986;6.282;2023-02-17T00:48:41;9.40;99.90
51825;DHT22;37879;52.986;6.282;2023-02-17T00:51:07;9.10;99.90
51825;DHT22;37879;52.986;6.282;2023-02-17T00:53:34;9.20;99.90
51825;DHT22;37879;52.986;6.282;2023-02-17T00:55:59;9.20;99.90
51825;DHT22;37879;52.986;6.282;2023-02-17T00:58:25;9.20;99.90
51825;DHT22;37879;52.986;6.282;2023-02-17T01:00:51;9.20;99.90
51825;DHT22;37879;52.986;6.282;2023-02-17T01:03:17;9.20;99.90
51825;DHT22;37879;52.986;6.282;2023-02-17T01:05:45;9.20;99.90
51825;DHT22;37879;52.986;6.282;2023-02-17T01:08:11;9.20;99.90
51825;DHT22;37879;52.986;6.282;2023-02-17T01:10:41;9.20;99.90
51825;DHT22;37879;52.986;6.282;2023-02-17T01:13:08;9.20;99.90
51825;DHT22;37879;52.986;6.282;2023-02-17T01:15:45;9.20;99.90
51825;DHT22;37879;52.986;6.282;2023-02-17T01:18:10;9.20;99.90
51825;DHT22;37879;52.986;6.282;2023-02-17T01:20:37;9.40;99.90
51825;DHT22;37879;52.986;6.282;2023-02-17T01:23:05;9.80;99.90
51825;DHT22;37879;52.986;6.282;2023-02-17T01:25:31;9.20;99.90
51825;DHT22;37879;52.986;6.282;2023-02-17T01:27:57;9.40;99.90
51825;DHT22;37879;52.986;6.282;2023-02-17T01:30:22;9.20;99.90
51825;DHT22;37879;52.986;6.282;2023-02-17T01:32:48;9.20;99.90
51825;DHT22;37879;52.986;6.282;2023-02-17T01:35:14;9.30;99.90
51825;DHT22;37879;52.986;6.282;2023-02-17T01:37:39;9.30;99.90
51825;DHT22;37879;52.986;6.282;2023-02-17T01:40:05;9.20;99.90
51825;DHT22;37879;52.986;6.282;2023-02-17T01:42:31;9.20;99.90
51825;DHT22;37879;52.986;6.282;2023-02-17T01:47:41;9.30;99.90
51825;DHT22;37879;52.986;6.282;2023-02-17T01:50:07;9.30;99.90
51825;DHT22;37879;52.986;6.282;2023-02-17T01:52:34;9.30;99.90
51825;DHT22;37879;52.986;6.282;2023-02-17T01:55:05;9.30;99.90
51825;DHT22;37879;52.986;6.282;2023-02-17T01:57:34;9.30;99.90
51825;DHT22;37879;52.986;6.282;2023-02-17T02:00:02;9.30;99.90
51825;DHT22;37879;52.986;6.282;2023-02-17T02:02:28;9.30;99.90
51825;DHT22;37879;52.986;6.282;2023-02-17T02:04:55;9.30;99.90
51825;DHT22;37879;52.986;6.282;2023-02-17T02:07:36;9.30;99.90
51825;DHT22;37879;52.986;6.282;2023-02-17T02:10:04;9.30;99.90
51825;DHT22;37879;52.986;6.282;2023-02-17T02:12:38;9.30;99.90
51825;DHT22;37879;52.986;6.282;2023-02-17T02:15:17;9.30;99.90
51825;DHT22;37879;52.986;6.282;2023-02-17T02:34:41;9.30;99.90
51825;DHT22;37879;52.986;6.282;2023-02-17T02:37:18;9.30;99.90
51825;DHT22;37879;52.986;6.282;2023-02-17T02:39:48;9.30;99.90
51825;DHT22;37879;52.986;6.282;2023-02-17T02:42:20;9.50;99.90
51825;DHT22;37879;52.986;6.282;2023-02-17T02:44:47;9.30;99.90
51825;DHT22;37879;52.986;6.282;2023-02-17T02:50:07;9.30;99.90
51825;DHT22;37879;52.986;6.282;2023-02-17T02:58:04;9.30;99.90
51825;DHT22;37879;52.986;6.282;2023-02-17T03:00:47;9.30;99.90
51825;DHT22;37879;52.986;6.282;2023-02-17T03:03:20;9.20;99.90
51825;DHT22;37879;52.986;6.282;2023-02-17T03:05:58;9.40;99.90
51825;DHT22;37879;52.986;6.282;2023-02-17T03:08:34;9.20;99.90
51825;DHT22;37879;52.986;6.282;2023-02-17T03:11:01;9.20;99.90
51825;DHT22;37879;52.986;6.282;2023-02-17T03:13:27;9.80;99.90
51825;DHT22;37879;52.986;6.282;2023-02-17T03:15:53;9.20;99.90
51825;DHT22;37879;52.986;6.282;2023-02-17T03:18:19;9.20;99.90
51825;DHT22;37879;52.986;6.282;2023-02-17T03:20:50;9.20;99.90
51825;DHT22;37879;52.986;6.282;2023-02-17T03:23:17;9.70;99.90
51825;DHT22;37879;52.986;6.282;2023-02-17T03:25:43;9.20;99.90
51825;DHT22;37879;52.986;6.282;2023-02-17T03:28:09;9.20;99.90
51825;DHT22;37879;52.986;6.282;2023-02-17T03:30:35;10.00;99.90
51825;DHT22;37879;52.986;6.282;2023-02-17T03:33:02;9.20;99.90
51825;DHT22;37879;52.986;6.282;2023-02-17T03:35:27;9.20;99.90
51825;DHT22;37879;52.986;6.282;2023-02-17T03:37:53;9.20;99.90
51825;DHT22;37879;52.986;6.282;2023-02-17T03:40:19;9.10;99.90
51825;DHT22;37879;52.986;6.282;2023-02-17T03:42:44;9.10;99.90
51825;DHT22;37879;52.986;6.282;2023-02-17T03:45:10;9.10;99.90
51825;DHT22;37879;52.986;6.282;2023-02-17T03:47:35;9.10;99.90
51825;DHT22;37879;52.986;6.282;2023-02-17T03:50:01;9.10;99.90
51825;DHT22;37879;52.986;6.282;2023-02-17T03:52:26;9.10;99.90
51825;DHT22;37879;52.986;6.282;2023-02-17T03:54:52;9.20;99.90
51825;DHT22;37879;52.986;6.282;2023-02-17T03:57:18;9.10;99.90
51825;DHT22;37879;52.986;6.282;2023-02-17T03:59:43;9.20;99.90
51825;DHT22;37879;52.986;6.282;2023-02-17T04:02:09;9.10;99.90
51825;DHT22;37879;52.986;6.282;2023-02-17T04:04:35;9.20;99.90
51825;DHT22;37879;52.986;6.282;2023-02-17T04:07:01;9.20;99.90
51825;DHT22;37879;52.986;6.282;2023-02-17T04:09:27;9.10;99.90
51825;DHT22;37879;52.986;6.282;2023-02-17T04:11:53;9.10;99.90
51825;DHT22;37879;52.986;6.282;2023-02-17T04:14:18;9.50;99.90
51825;DHT22;37879;52.986;6.282;2023-02-17T04:16:44;9.80;99.90
51825;DHT22;37879;52.986;6.282;2023-02-17T04:19:10;9.10;99.90
51825;DHT22;37879;52.986;6.282;2023-02-17T04:21:35;9.10;99.90
51825;DHT22;37879;52.986;6.282;2023-02-17T04:24:02;9.70;99.90
51825;DHT22;37879;52.986;6.282;2023-02-17T04:26:28;9.10;99.90
51825;DHT22;37879;52.986;6.282;2023-02-17T04:28:53;9.80;99.90
51825;DHT22;37879;52.986;6.282;2023-02-17T04:31:19;9.00;99.90
51825;DHT22;37879;52.986;6.282;2023-02-17T04:33:45;9.00;99.90
51825;DHT22;37879;52.986;6.282;2023-02-17T04:36:10;10.30;99.90
51825;DHT22;37879;52.986;6.282;2023-02-17T04:38:37;9.20;99.90
51825;DHT22;37879;52.986;6.282;2023-02-17T04:41:03;9.00;99.90
51825;DHT22;37879;52.986;6.282;2023-02-17T04:43:29;9.00;99.90
51825;DHT22;37879;52.986;6.282;2023-02-17T04:45:55;9.00;99.90
51825;DHT22;37879;52.986;6.282;2023-02-17T04:48:21;9.00;99.90
51825;DHT22;37879;52.986;6.282;2023-02-17T04:50:46;8.90;99.90
51825;DHT22;37879;52.986;6.282;2023-02-17T04:53:12;8.90;99.90
51825;DHT22;37879;52.986;6.282;2023-02-17T04:55:39;8.90;99.90
51825;DHT22;37879;52.986;6.282;2023-02-17T04:58:06;8.90;99.90
51825;DHT22;37879;52.986;6.282;2023-02-17T05:00:31;8.90;99.90
51825;DHT22;37879;52.986;6.282;2023-02-17T05:02:57;9.30;99.90
51825;DHT22;37879;52.986;6.282;2023-02-17T05:05:23;8.90;99.90
51825;DHT22;37879;52.986;6.282;2023-02-17T05:07:48;8.90;99.90
51825;DHT22;37879;52.986;6.282;2023-02-17T05:10:16;9.50;99.90
51825;DHT22;37879;52.986;6.282;2023-02-17T05:12:41;8.90;99.90
51825;DHT22;37879;52.986;6.282;2023-02-17T05:15:07;9.10;99.90
51825;DHT22;37879;52.986;6.282;2023-02-17T05:17:34;9.00;99.90
51825;DHT22;37879;52.986;6.282;2023-02-17T05:20:00;8.90;99.90
51825;DHT22;37879;52.986;6.282;2023-02-17T05:22:26;10.30;99.90
51825;DHT22;37879;52.986;6.282;2023-02-17T05:24:52;9.00;99.90
51825;DHT22;37879;52.986;6.282;2023-02-17T05:27:18;8.90;99.90
51825;DHT22;37879;52.986;6.282;2023-02-17T05:29:44;8.90;99.90
51825;DHT22;37879;52.986;6.282;2023-02-17T05:32:10;9.30;99.90
51825;DHT22;37879;52.986;6.282;2023-02-17T05:34:35;9.50;99.90
51825;DHT22;37879;52.986;6.282;2023-02-17T05:37:01;9.00;99.90
51825;DHT22;37879;52.986;6.282;2023-02-17T05:39:27;8.90;99.90
51825;DHT22;37879;52.986;6.282;2023-02-17T05:41:53;8.90;99.90
51825;DHT22;37879;52.986;6.282;2023-02-17T05:44:18;8.80;99.90
51825;DHT22;37879;52.986;6.282;2023-02-17T05:46:44;8.90;99.90
51825;DHT22;37879;52.986;6.282;2023-02-17T05:49:10;8.90;99.90
51825;DHT22;37879;52.986;6.282;2023-02-17T05:51:36;8.90;99.90
51825;DHT22;37879;52.986;6.282;2023-02-17T05:54:02;9.00;99.90
51825;DHT22;37879;52.986;6.282;2023-02-17T05:56:27;8.90;99.90
51825;DHT22;37879;52.986;6.282;2023-02-17T05:58:53;9.00;99.90
51825;DHT22;37879;52.986;6.282;2023-02-17T06:01:19;9.10;99.90
51825;DHT22;37879;52.986;6.282;2023-02-17T06:03:44;9.00;99.90
51825;DHT22;37879;52.986;6.282;2023-02-17T06:06:10;9.00;99.90
51825;DHT22;37879;52.986;6.282;2023-02-17T06:08:36;9.00;99.90
51825;DHT22;37879;52.986;6.282;2023-02-17T06:11:01;9.00;99.90
51825;DHT22;37879;52.986;6.282;2023-02-17T06:13:27;9.00;99.90
51825;DHT22;37879;52.986;6.282;2023-02-17T06:15:53;9.00;99.90
51825;DHT22;37879;52.986;6.282;2023-02-17T06:18:19;9.00;99.90
51825;DHT22;37879;52.986;6.282;2023-02-17T06:20:45;9.50;99.90
51825;DHT22;37879;52.986;6.282;2023-02-17T06:23:10;9.10;99.90
51825;DHT22;37879;52.986;6.282;2023-02-17T06:25:36;9.10;99.90
51825;DHT22;37879;52.986;6.282;2023-02-17T06:28:02;9.40;99.90
51825;DHT22;37879;52.986;6.282;2023-02-17T06:30:28;9.10;99.90
51825;DHT22;37879;52.986;6.282;2023-02-17T06:32:53;9.10;99.90
51825;DHT22;37879;52.986;6.282;2023-02-17T06:35:19;9.10;99.90
51825;DHT22;37879;52.986;6.282;2023-02-17T06:37:45;9.10;99.90
51825;DHT22;37879;52.986;6.282;2023-02-17T06:40:11;8.20;99.90
51825;DHT22;37879;52.986;6.282;2023-02-17T06:42:36;10.20;99.90
51825;DHT22;37879;52.986;6.282;2023-02-17T06:45:03;9.50;99.90
51825;DHT22;37879;52.986;6.282;2023-02-17T06:47:31;9.10;99.90
51825;DHT22;37879;52.986;6.282;2023-02-17T06:49:57;9.10;99.90
51825;DHT22;37879;52.986;6.282;2023-02-17T06:52:23;9.10;99.90
51825;DHT22;37879;52.986;6.282;2023-02-17T06:54:48;9.40;99.90
51825;DHT22;37879;52.986;6.282;2023-02-17T06:57:15;9.50;99.90
51825;DHT22;37879;52.986;6.282;2023-02-17T06:59:41;9.10;99.90
51825;DHT22;37879;52.986;6.282;2023-02-17T07:02:10;9.10;99.90
51825;DHT22;37879;52.986;6.282;2023-02-17T07:04:39;9.20;99.90
51825;DHT22;37879;52.986;6.282;2023-02-17T07:07:05;9.20;99.90
51825;DHT22;37879;52.986;6.282;2023-02-17T07:09:31;10.20;99.90
51825;DHT22;37879;52.986;6.282;2023-02-17T07:11:57;9.90;99.90
51825;DHT22;37879;52.986;6.282;2023-02-17T07:14:23;9.30;99.90
51825;DHT22;37879;52.986;6.282;2023-02-17T07:16:49;9.20;99.90
51825;DHT22;37879;52.986;6.282;2023-02-17T07:19:15;9.20;99.90
51825;DHT22;37879;52.986;6.282;2023-02-17T07:21:41;9.20;99.90
51825;DHT22;37879;52.986;6.282;2023-02-17T07:24:07;9.30;99.90
51825;DHT22;37879;52.986;6.282;2023-02-17T07:26:37;9.30;99.90
51825;DHT22;37879;52.986;6.282;2023-02-17T07:29:04;9.30;99.90
51825;DHT22;37879;52.986;6.282;2023-02-17T07:31:31;9.30;99.90
51825;DHT22;37879;52.986;6.282;2023-02-17T07:33:56;9.50;99.90
51825;DHT22;37879;52.986;6.282;2023-02-17T07:36:22;9.30;99.90
51825;DHT22;37879;52.986;6.282;2023-02-17T07:38:48;9.70;99.90
51825;DHT22;37879;52.986;6.282;2023-02-17T07:41:16;9.40;99.90
51825;DHT22;37879;52.986;6.282;2023-02-17T07:43:42;9.50;99.90
51825;DHT22;37879;52.986;6.282;2023-02-17T07:46:09;9.50;99.90
51825;DHT22;37879;52.986;6.282;2023-02-17T07:48:36;9.40;99.90
51825;DHT22;37879;52.986;6.282;2023-02-17T07:51:14;9.50;99.90
51825;DHT22;37879;52.986;6.282;2023-02-17T07:53:40;8.90;99.90
51825;DHT22;37879;52.986;6.282;2023-02-17T07:56:08;9.50;99.90
51825;DHT22;37879;52.986;6.282;2023-02-17T07:58:35;9.60;99.90
51825;DHT22;37879;52.986;6.282;2023-02-17T08:01:16;9.60;99.90
51825;DHT22;37879;52.986;6.282;2023-02-17T08:03:43;9.60;99.90
51825;DHT22;37879;52.986;6.282;2023-02-17T08:06:17;9.60;99.90
51825;DHT22;37879;52.986;6.282;2023-02-17T08:08:44;9.90;99.90
51825;DHT22;37879;52.986;6.282;2023-02-17T08:11:29;9.70;99.90
51825;DHT22;37879;52.986;6.282;2023-02-17T08:14:14;9.70;99.90
51825;DHT22;37879;52.986;6.282;2023-02-17T08:16:40;10.10;99.90
51825;DHT22;37879;52.986;6.282;2023-02-17T08:19:06;9.70;99.90
51825;DHT22;37879;52.986;6.282;2023-02-17T08:21:31;10.00;99.90
51825;DHT22;37879;52.986;6.282;2023-02-17T08:23:57;10.70;99.90
51825;DHT22;37879;52.986;6.282;2023-02-17T08:26:23;9.80;99.90
51825;DHT22;37879;52.986;6.282;2023-02-17T08:28:49;9.80;99.90
51825;DHT22;37879;52.986;6.282;2023-02-17T08:31:28;10.50;99.90
51825;DHT22;37879;52.986;6.282;2023-02-17T08:33:54;9.80;99.90
51825;DHT22;37879;52.986;6.282;2023-02-17T08:36:20;9.90;99.90
51825;DHT22;37879;52.986;6.282;2023-02-17T08:38:50;9.90;99.90
51825;DHT22;37879;52.986;6.282;2023-02-17T08:41:21;10.20;99.90
51825;DHT22;37879;52.986;6.282;2023-02-17T08:43:48;10.00;99.90
51825;DHT22;37879;52.986;6.282;2023-02-17T08:46:15;10.00;99.90
51825;DHT22;37879;52.986;6.282;2023-02-17T08:48:41;10.00;99.90
51825;DHT22;37879;52.986;6.282;2023-02-17T08:51:07;10.00;99.90
51825;DHT22;37879;52.986;6.282;2023-02-17T08:53:36;10.40;99.90
51825;DHT22;37879;52.986;6.282;2023-02-17T08:56:01;10.10;99.90
51825;DHT22;37879;52.986;6.282;2023-02-17T08:58:27;10.10;99.90
51825;DHT22;37879;52.986;6.282;2023-02-17T09:00:53;10.10;99.90
51825;DHT22;37879;52.986;6.282;2023-02-17T09:03:19;10.10;99.90
51825;DHT22;37879;52.986;6.282;2023-02-17T09:05:44;10.10;99.90
51825;DHT22;37879;52.986;6.282;2023-02-17T09:08:10;10.10;99.90
51825;DHT22;37879;52.986;6.282;2023-02-17T09:10:36;10.80;99.90
51825;DHT22;37879;52.986;6.282;2023-02-17T09:13:03;10.20;99.90
51825;DHT22;37879;52.986;6.282;2023-02-17T09:15:28;10.30;99.90
51825;DHT22;37879;52.986;6.282;2023-02-17T09:17:54;11.00;99.90
51825;DHT22;37879;52.986;6.282;2023-02-17T09:20:20;10.30;99.90
51825;DHT22;37879;52.986;6.282;2023-02-17T09:22:46;9.90;99.90
51825;DHT22;37879;52.986;6.282;2023-02-17T09:25:11;10.30;99.90
51825;DHT22;37879;52.986;6.282;2023-02-17T09:27:37;10.30;99.90
51825;DHT22;37879;52.986;6.282;2023-02-17T09:30:03;10.30;99.90
51825;DHT22;37879;52.986;6.282;2023-02-17T09:32:29;10.30;99.90
51825;DHT22;37879;52.986;6.282;2023-02-17T09:34:54;10.40;99.90
51825;DHT22;37879;52.986;6.282;2023-02-17T09:37:21;10.40;99.90
51825;DHT22;37879;52.986;6.282;2023-02-17T09:39:48;10.40;99.90
51825;DHT22;37879;52.986;6.282;2023-02-17T09:42:20;9.50;99.90
51825;DHT22;37879;52.986;6.282;2023-02-17T09:44:58;10.40;99.90
51825;DHT22;37879;52.986;6.282;2023-02-17T09:47:36;10.50;99.90
51825;DHT22;37879;52.986;6.282;2023-02-17T09:50:11;10.50;99.90
51825;DHT22;37879;52.986;6.282;2023-02-17T09:52:40;10.50;99.90
51825;DHT22;37879;52.986;6.282;2023-02-17T10:00:31;10.60;99.90
51825;DHT22;37879;52.986;6.282;2023-02-17T10:03:03;10.60;99.90
51825;DHT22;37879;52.986;6.282;2023-02-17T10:05:35;11.20;99.90
51825;DHT22;37879;52.986;6.282;2023-02-17T10:08:14;10.60;99.90
51825;DHT22;37879;52.986;6.282;2023-02-17T10:10:50;10.70;99.90
51825;DHT22;37879;52.986;6.282;2023-02-17T10:13:19;10.70;99.90
51825;DHT22;37879;52.986;6.282;2023-02-17T10:15:50;10.70;99.90
51825;DHT22;37879;52.986;6.282;2023-02-17T10:18:37;10.70;99.90
51825;DHT22;37879;52.986;6.282;2023-02-17T10:21:09;10.70;99.90
51825;DHT22;37879;52.986;6.282;2023-02-17T10:23:36;11.40;99.90
51825;DHT22;37879;52.986;6.282;2023-02-17T10:32:14;10.60;99.90
51825;DHT22;37879;52.986;6.282;2023-02-17T10:39:56;10.60;99.90
51825;DHT22;37879;52.986;6.282;2023-02-17T10:42:29;11.30;99.90
51825;DHT22;37879;52.986;6.282;2023-02-17T10:47:41;10.70;99.90
51825;DHT22;37879;52.986;6.282;2023-02-17T10:50:20;10.70;99.90
51825;DHT22;37879;52.986;6.282;2023-02-17T10:52:47;10.70;99.90
51825;DHT22;37879;52.986;6.282;2023-02-17T10:55:36;10.70;99.90
51825;DHT22;37879;52.986;6.282;2023-02-17T10:58:12;10.70;99.90
51825;DHT22;37879;52.986;6.282;2023-02-17T11:00:41;11.50;99.90
51825;DHT22;37879;52.986;6.282;2023-02-17T11:03:27;10.60;99.90
51825;DHT22;37879;52.986;6.282;2023-02-17T11:05:59;10.50;99.90
51825;DHT22;37879;52.986;6.282;2023-02-17T11:15:59;10.70;99.90
51825;DHT22;37879;52.986;6.282;2023-02-17T11:18:32;10.70;99.90
51825;DHT22;37879;52.986;6.282;2023-02-17T11:21:10;10.90;99.90
51825;DHT22;37879;52.986;6.282;2023-02-17T11:23:57;10.70;99.90
51825;DHT22;37879;52.986;6.282;2023-02-17T11:26:26;10.70;99.90
51825;DHT22;37879;52.986;6.282;2023-02-17T11:28:52;10.70;99.90
51825;DHT22;37879;52.986;6.282;2023-02-17T11:31:27;10.70;99.90
51825;DHT22;37879;52.986;6.282;2023-02-17T11:33:53;10.70;99.90
51825;DHT22;37879;52.986;6.282;2023-02-17T11:36:28;10.70;99.90
51825;DHT22;37879;52.986;6.282;2023-02-17T11:38:54;10.70;99.90
51825;DHT22;37879;52.986;6.282;2023-02-17T11:41:20;10.80;99.90
51825;DHT22;37879;52.986;6.282;2023-02-17T11:43:54;10.80;99.90
51825;DHT22;37879;52.986;6.282;2023-02-17T11:54:23;10.90;99.90
51825;DHT22;37879;52.986;6.282;2023-02-17T12:02:17;11.00;99.90
51825;DHT22;37879;52.986;6.282;2023-02-17T12:18:44;11.20;99.90
51825;DHT22;37879;52.986;6.282;2023-02-17T12:24:03;11.30;99.90
51825;DHT22;37879;52.986;6.282;2023-02-17T12:32:05;11.60;99.90
51825;DHT22;37879;52.986;6.282;2023-02-17T12:34:38;11.40;99.90
51825;DHT22;37879;52.986;6.282;2023-02-17T12:37:08;11.40;99.90
51825;DHT22;37879;52.986;6.282;2023-02-17T12:39:52;11.40;99.90
51825;DHT22;37879;52.986;6.282;2023-02-17T12:42:29;11.40;99.90
51825;DHT22;37879;52.986;6.282;2023-02-17T12:45:02;11.50;99.90
51825;DHT22;37879;52.986;6.282;2023-02-17T12:47:45;11.50;99.90
51825;DHT22;37879;52.986;6.282;2023-02-17T12:50:31;11.50;99.90
51825;DHT22;37879;52.986;6.282;2023-02-17T12:53:02;11.60;99.90
51825;DHT22;37879;52.986;6.282;2023-02-17T12:55:40;11.70;99.90
51825;DHT22;37879;52.986;6.282;2023-02-17T12:58:19;11.70;99.90
51825;DHT22;37879;52.986;6.282;2023-02-17T13:00:50;11.80;99.90
51825;DHT22;37879;52.986;6.282;2023-02-17T13:03:18;11.80;99.90
51825;DHT22;37879;52.986;6.282;2023-02-17T13:08:43;11.90;99.90
51825;DHT22;37879;52.986;6.282;2023-02-17T13:11:12;12.00;99.90
51825;DHT22;37879;52.986;6.282;2023-02-17T13:13:39;12.00;99.90
51825;DHT22;37879;52.986;6.282;2023-02-17T13:16:13;12.10;99.90
51825;DHT22;37879;52.986;6.282;2023-02-17T13:18:41;12.10;99.90
51825;DHT22;37879;52.986;6.282;2023-02-17T13:21:34;12.10;99.90
51825;DHT22;37879;52.986;6.282;2023-02-17T13:24:03;12.00;99.90
51825;DHT22;37879;52.986;6.282;2023-02-17T13:26:36;12.00;99.90
51825;DHT22;37879;52.986;6.282;2023-02-17T13:29:09;11.90;99.90
51825;DHT22;37879;52.986;6.282;2023-02-17T13:31:55;12.00;99.90
51825;DHT22;37879;52.986;6.282;2023-02-17T13:36:54;11.80;99.90
51825;DHT22;37879;52.986;6.282;2023-02-17T13:41:53;11.80;99.90
51825;DHT22;37879;52.986;6.282;2023-02-17T13:44:38;11.90;99.90
51825;DHT22;37879;52.986;6.282;2023-02-17T13:47:17;11.90;99.90
51825;DHT22;37879;52.986;6.282;2023-02-17T13:49:52;12.00;99.90
51825;DHT22;37879;52.986;6.282;2023-02-17T13:52:22;12.10;99.90
51825;DHT22;37879;52.986;6.282;2023-02-17T13:54:55;12.10;99.90
51825;DHT22;37879;52.986;6.282;2023-02-17T13:57:31;12.10;99.90
51825;DHT22;37879;52.986;6.282;2023-02-17T14:05:42;12.10;99.90
51825;DHT22;37879;52.986;6.282;2023-02-17T14:10:37;12.10;99.90
51825;DHT22;37879;52.986;6.282;2023-02-17T14:13:03;12.10;99.90
51825;DHT22;37879;52.986;6.282;2023-02-17T14:15:30;12.20;99.90
51825;DHT22;37879;52.986;6.282;2023-02-17T14:17:56;12.20;99.90
51825;DHT22;37879;52.986;6.282;2023-02-17T14:20:26;12.30;99.90
51825;DHT22;37879;52.986;6.282;2023-02-17T14:23:19;12.30;99.90
51825;DHT22;37879;52.986;6.282;2023-02-17T14:25:44;12.30;99.90
51825;DHT22;37879;52.986;6.282;2023-02-17T14:28:25;13.60;99.90
51825;DHT22;37879;52.986;6.282;2023-02-17T14:30:51;12.30;99.90
51825;DHT22;37879;52.986;6.282;2023-02-17T14:33:23;12.30;99.90
51825;DHT22;37879;52.986;6.282;2023-02-17T14:38:23;12.30;99.90
51825;DHT22;37879;52.986;6.282;2023-02-17T14:40:49;12.30;99.90
51825;DHT22;37879;52.986;6.282;2023-02-17T14:43:15;13.10;99.90
51825;DHT22;37879;52.986;6.282;2023-02-17T14:45:41;12.30;99.90
51825;DHT22;37879;52.986;6.282;2023-02-17T14:48:06;12.30;99.90
51825;DHT22;37879;52.986;6.282;2023-02-17T14:50:33;12.30;99.90
51825;DHT22;37879;52.986;6.282;2023-02-17T14:52:59;12.20;99.90
51825;DHT22;37879;52.986;6.282;2023-02-17T14:55:35;12.20;99.90
51825;DHT22;37879;52.986;6.282;2023-02-17T14:58:03;12.10;99.90
51825;DHT22;37879;52.986;6.282;2023-02-17T15:00:30;12.00;99.90
51825;DHT22;37879;52.986;6.282;2023-02-17T15:02:55;12.00;99.90
51825;DHT22;37879;52.986;6.282;2023-02-17T15:05:21;11.90;99.90
51825;DHT22;37879;52.986;6.282;2023-02-17T15:07:47;11.90;99.90
51825;DHT22;37879;52.986;6.282;2023-02-17T15:12:42;11.70;99.90
51825;DHT22;37879;52.986;6.282;2023-02-17T15:15:13;11.60;99.90
51825;DHT22;37879;52.986;6.282;2023-02-17T15:17:38;12.00;99.90
51825;DHT22;37879;52.986;6.282;2023-02-17T15:20:04;11.40;99.90
51825;DHT22;37879;52.986;6.282;2023-02-17T15:22:30;11.40;99.90
51825;DHT22;37879;52.986;6.282;2023-02-17T15:24:56;11.30;99.90
51825;DHT22;37879;52.986;6.282;2023-02-17T15:27:21;11.30;99.90
51825;DHT22;37879;52.986;6.282;2023-02-17T15:29:47;11.30;99.90
51825;DHT22;37879;52.986;6.282;2023-02-17T15:32:15;11.20;99.90
51825;DHT22;37879;52.986;6.282;2023-02-17T15:34:44;12.10;99.90
51825;DHT22;37879;52.986;6.282;2023-02-17T15:37:10;11.10;99.90
51825;DHT22;37879;52.986;6.282;2023-02-17T15:39:36;11.10;99.90
51825;DHT22;37879;52.986;6.282;2023-02-17T15:42:06;11.10;99.90
51825;DHT22;37879;52.986;6.282;2023-02-17T15:44:46;11.10;99.90
51825;DHT22;37879;52.986;6.282;2023-02-17T15:47:17;11.00;99.90
51825;DHT22;37879;52.986;6.282;2023-02-17T15:49:44;10.80;99.90
51825;DHT22;37879;52.986;6.282;2023-02-17T15:52:11;11.30;99.90
51825;DHT22;37879;52.986;6.282;2023-02-17T15:54:41;10.90;99.90
51825;DHT22;37879;52.986;6.282;2023-02-17T15:57:18;10.90;99.90
51825;DHT22;37879;52.986;6.282;2023-02-17T15:59:44;10.80;99.90
51825;DHT22;37879;52.986;6.282;2023-02-17T16:02:22;10.80;99.90
51825;DHT22;37879;52.986;6.282;2023-02-17T16:04:48;11.10;99.90
51825;DHT22;37879;52.986;6.282;2023-02-17T16:07:14;10.70;99.90
51825;DHT22;37879;52.986;6.282;2023-02-17T16:09:39;10.70;99.90
51825;DHT22;37879;52.986;6.282;2023-02-17T16:12:16;11.20;99.90
51825;DHT22;37879;52.986;6.282;2023-02-17T16:14:43;10.50;99.90
51825;DHT22;37879;52.986;6.282;2023-02-17T16:17:14;10.50;99.90
51825;DHT22;37879;52.986;6.282;2023-02-17T16:19:40;10.40;99.90
51825;DHT22;37879;52.986;6.282;2023-02-17T16:22:07;10.40;99.90
51825;DHT22;37879;52.986;6.282;2023-02-17T16:24:33;10.30;99.90
51825;DHT22;37879;52.986;6.282;2023-02-17T16:26:59;10.20;99.90
51825;DHT22;37879;52.986;6.282;2023-02-17T16:29:24;10.20;99.90
51825;DHT22;37879;52.986;6.282;2023-02-17T16:31:50;10.20;99.90
51825;DHT22;37879;52.986;6.282;2023-02-17T16:34:21;10.10;99.90
51825;DHT22;37879;52.986;6.282;2023-02-17T16:36:48;10.10;99.90
51825;DHT22;37879;52.986;6.282;2023-02-17T16:39:16;10.00;99.90
51825;DHT22;37879;52.986;6.282;2023-02-17T16:41:43;10.00;99.90
51825;DHT22;37879;52.986;6.282;2023-02-17T16:44:13;10.00;99.90
51825;DHT22;37879;52.986;6.282;2023-02-17T16:46:47;9.90;99.90
51825;DHT22;37879;52.986;6.282;2023-02-17T16:49:25;9.90;99.90
51825;DHT22;37879;52.986;6.282;2023-02-17T16:52:01;9.50;99.90
51825;DHT22;37879;52.986;6.282;2023-02-17T16:54:26;9.90;99.90
51825;DHT22;37879;52.986;6.282;2023-02-17T16:56:53;8.80;99.90
51825;DHT22;37879;52.986;6.282;2023-02-17T16:59:21;9.80;99.90
51825;DHT22;37879;52.986;6.282;2023-02-17T17:01:47;9.80;99.90
51825;DHT22;37879;52.986;6.282;2023-02-17T17:04:14;10.10;99.90
51825;DHT22;37879;52.986;6.282;2023-02-17T17:06:48;9.80;99.90
51825;DHT22;37879;52.986;6.282;2023-02-17T17:09:23;9.70;99.90
51825;DHT22;37879;52.986;6.282;2023-02-17T17:11:49;9.70;99.90
51825;DHT22;37879;52.986;6.282;2023-02-17T17:14:15;9.60;99.90
51825;DHT22;37879;52.986;6.282;2023-02-17T17:16:46;9.60;99.90
51825;DHT22;37879;52.986;6.282;2023-02-17T17:19:12;9.50;99.90
51825;DHT22;37879;52.986;6.282;2023-02-17T17:21:38;9.50;99.90
51825;DHT22;37879;52.986;6.282;2023-02-17T17:24:04;9.60;99.90
51825;DHT22;37879;52.986;6.282;2023-02-17T17:26:38;9.40;99.90
51825;DHT22;37879;52.986;6.282;2023-02-17T17:29:06;9.30;99.90
51825;DHT22;37879;52.986;6.282;2023-02-17T17:31:32;9.20;99.90
51825;DHT22;37879;52.986;6.282;2023-02-17T17:33:58;9.50;99.90
51825;DHT22;37879;52.986;6.282;2023-02-17T17:36:27;9.20;99.90
51825;DHT22;37879;52.986;6.282;2023-02-17T17:38:54;9.40;99.90
51825;DHT22;37879;52.986;6.282;2023-02-17T17:41:22;9.00;99.90